Latest Weather Observations for Campania

IDT60901

Issued at 9:55 pm EST Saturday 20 September 2014 (issued every 10 minutes, with the page automatically refreshed every 10 minutes)

About weather observations | Map of Hobart area stations | Latest observations for Hobart area | Other Formats
Station Details ID: 094212 Name: CAMPANIA (KINCORA) Lat: -42.69 Lon: 147.43 Height: 45.0 m
Data from the previous 72 hours. | See also: Recent months at Campania
Date/Time
EST
Tmp

°C
App
Tmp
°C
Dew
Point
°C
Rel
Hum
%
Delta-T

°C
Wind Press
QNH
hPa
Press
MSL
hPa
Rain
since
9 am
mm
Dir
 
Spd
km/h
Gust
km/h
Spd
kts
Gust
kts
20/09:30pm 10.8 6.3 4.3 64 2.9 W 17 24 9 13 - - 0.0
20/09:00pm 11.1 6.1 3.6 60 3.3 W 19 28 10 15 - - 0.0
20/08:30pm 10.9 6.3 3.9 62 3.1 WNW 17 28 9 15 - - 0.0
20/08:00pm 11.0 6.0 3.8 61 3.2 W 19 26 10 14 - - 0.0
20/07:30pm 11.2 6.2 3.7 60 3.3 W 19 28 10 15 - - 0.0
20/07:00pm 11.7 6.7 3.5 57 3.6 WNW 19 30 10 16 - - 0.0
20/06:30pm 11.9 7.7 3.9 58 3.6 NNW 15 24 8 13 - - 0.0
20/06:00pm 12.4 8.2 3.9 56 3.8 NW 15 28 8 15 - - 0.0
20/05:30pm 13.0 8.4 3.9 54 4.1 W 17 26 9 14 - - 0.0
20/05:00pm 13.5 8.1 4.4 54 4.2 WNW 22 32 12 17 - - 0.0
20/04:30pm 14.5 8.4 4.8 52 4.5 WSW 26 33 14 18 - - 0.0
20/04:00pm 15.4 10.1 4.8 49 5.0 WNW 22 35 12 19 - - 0.0
20/03:30pm 14.9 9.1 4.6 50 4.8 WSW 24 35 13 19 - - 0.0
20/03:00pm 16.1 10.5 5.4 49 5.1 W 24 35 13 19 - - 0.0
20/02:30pm 16.7 11.5 5.3 47 5.5 W 22 35 12 19 - - 0.0
20/02:00pm 16.2 10.9 4.9 47 5.4 WNW 22 35 12 19 - - 0.0
20/01:30pm 16.6 10.2 5.3 47 5.4 WNW 28 39 15 21 - - 0.0
20/01:00pm 16.8 12.0 5.4 47 5.5 W 20 32 11 17 - - 0.0
20/12:30pm 15.7 10.8 5.0 49 5.1 WNW 20 35 11 19 - - 0.0
20/12:03pm 15.3 8.9 5.2 51 4.8 W 28 50 15 27 - - 0.0
20/12:00pm 15.4 9.5 5.6 52 4.7 W 26 50 14 27 - - 0.0
20/11:30am 15.3 10.0 4.9 50 4.9 WSW 22 33 12 18 - - 0.0
20/11:00am 15.4 10.5 5.3 51 4.8 W 20 32 11 17 - - 0.0
20/10:30am 15.2 10.0 5.4 52 4.7 W 22 33 12 18 - - 0.0
20/10:00am 14.7 9.8 5.2 53 4.5 W 20 32 11 17 - - 0.0
20/09:30am 14.4 10.3 6.3 58 3.9 WNW 17 26 9 14 - - 0.0
20/09:00am 13.5 9.0 5.9 60 3.6 NW 19 24 10 13 - - 0.2
20/08:30am 13.1 9.2 5.5 60 3.6 W 15 24 8 13 - - 0.2
20/08:00am 12.4 9.0 5.8 64 3.1 NW 13 19 7 10 - - 0.2
20/07:30am 11.6 8.9 5.7 67 2.7 NW 9 15 5 8 - - 0.2
20/07:00am 8.4 6.2 5.3 81 1.4 N 6 11 3 6 - - 0.2
20/06:30am 7.7 5.0 3.7 76 1.7 N 7 11 4 6 - - 0.2
20/06:00am 10.7 7.2 5.3 69 2.5 WSW 13 20 7 11 - - 0.2
20/05:30am 10.1 7.2 4.9 70 2.3 SSW 9 24 5 13 - - 0.2
20/05:00am 10.0 5.2 5.4 73 2.1 W 20 24 11 13 - - 0.2
20/04:30am 10.4 6.1 5.2 70 2.4 W 17 20 9 11 - - 0.2
20/04:00am 11.1 6.2 5.0 66 2.8 W 20 30 11 16 - - 0.2
20/03:30am 11.3 4.9 5.0 65 2.9 W 28 39 15 21 - - 0.2
20/03:00am 11.6 6.3 4.8 63 3.1 WNW 22 33 12 18 - - 0.2
20/02:30am 11.7 6.3 4.4 61 3.3 NW 22 32 12 17 - - 0.2
20/02:00am 11.6 7.9 4.6 62 3.2 WNW 13 20 7 11 - - 0.2
20/01:30am 11.4 7.0 4.8 64 3.0 W 17 24 9 13 - - 0.2
20/01:00am 11.3 7.4 5.2 66 2.8 W 15 20 8 11 - - 0.2
20/12:30am 10.7 6.5 5.5 70 2.4 W 17 26 9 14 - - 0.2
20/12:00am 11.1 6.9 5.8 70 2.5 WNW 17 28 9 15 - - 0.2
 
Date/Time
EST
Tmp

°C
App
Tmp
°C
Dew
Point
°C
Rel
Hum
%
Delta-T

°C
Wind Press
QNH
hPa
Press
MSL
hPa
Rain
since
9 am
mm
Dir
 
Spd
km/h
Gust
km/h
Spd
kts
Gust
kts
19/11:30pm 11.2 7.4 5.9 70 2.5 WNW 15 20 8 11 - - 0.2
19/11:00pm 10.9 7.1 5.9 71 2.3 WNW 15 30 8 16 - - 0.2
19/10:30pm 11.4 7.9 5.5 67 2.7 N 13 19 7 10 - - 0.2
19/10:00pm 11.4 7.9 5.5 67 2.7 SW 13 20 7 11 - - 0.2
19/09:30pm 11.4 5.5 5.7 68 2.6 W 26 33 14 18 - - 0.2
19/09:00pm 11.7 5.8 5.6 66 2.8 WSW 26 37 14 20 - - 0.2
19/08:30pm 11.8 6.7 5.9 67 2.8 WSW 22 30 12 16 - - 0.2
19/08:00pm 12.0 7.4 5.6 65 3.0 W 19 28 10 15 - - 0.2
19/07:30pm 12.4 8.1 5.3 62 3.3 W 17 26 9 14 - - 0.2
19/07:00pm 12.1 7.3 4.8 61 3.3 WSW 19 33 10 18 - - 0.2
19/06:30pm 12.1 8.0 4.3 59 3.5 W 15 26 8 14 - - 0.2
19/06:00pm 13.0 6.7 3.9 54 4.1 W 26 43 14 23 - - 0.2
19/05:30pm 13.4 7.5 3.8 52 4.3 W 24 46 13 25 - - 0.2
19/05:00pm 14.2 7.8 3.1 47 5.0 W 26 41 14 22 - - 0.2
19/04:45pm 14.4 6.8 2.6 45 5.3 W 32 50 17 27 - - 0.2
19/04:30pm 14.5 7.5 2.1 43 5.5 W 28 46 15 25 - - 0.2
19/04:02pm 14.0 6.9 1.6 43 5.4 WSW 28 48 15 26 - - 0.2
19/04:00pm 13.9 7.3 1.9 44 5.2 WSW 26 41 14 22 - - 0.2
19/03:30pm 14.4 7.4 2.0 43 5.4 W 28 52 15 28 - - 0.2
19/03:14pm 15.3 8.4 2.8 43 5.6 W 28 46 15 25 - - 0.2
19/03:00pm 15.1 6.8 2.3 42 5.7 W 35 50 19 27 - - 0.2
19/02:30pm 15.3 7.5 1.4 39 6.1 WSW 32 43 17 23 - - 0.2
19/02:01pm 15.6 7.9 3.4 44 5.6 W 33 52 18 28 - - 0.2
19/02:00pm 15.5 7.4 3.0 43 5.7 W 35 52 19 28 - - 0.2
19/01:30pm 15.7 7.3 3.8 45 5.5 W 37 52 20 28 - - 0.2
19/01:00pm 15.2 6.7 3.4 45 5.4 WSW 37 48 20 26 - - 0.2
19/12:30pm 15.1 7.6 3.3 45 5.4 W 32 50 17 27 - - 0.2
19/12:26pm 15.5 8.5 4.2 47 5.3 W 30 50 16 27 - - 0.2
19/12:00pm 14.7 7.0 3.2 46 5.2 WSW 33 50 18 27 - - 0.2
19/11:30am 14.4 6.0 3.8 49 4.8 WSW 37 61 20 33 - - 0.2
19/11:26am 14.1 5.8 4.1 51 4.6 WSW 37 61 20 33 - - 0.2
19/11:00am 14.6 7.0 5.7 55 4.2 WSW 35 46 19 25 - - 0.2
19/10:30am 14.2 7.2 5.8 57 4.0 W 32 43 17 23 - - 0.2
19/10:00am 13.9 8.9 6.3 60 3.6 WSW 22 33 12 18 - - 0.0
19/09:30am 13.2 9.0 5.6 60 3.6 W 17 22 9 12 - - 0.0
19/09:00am 12.9 8.4 6.0 63 3.3 W 19 26 10 14 - - 0.4
19/08:30am 12.3 7.9 5.0 61 3.4 W 17 22 9 12 - - 0.4
19/08:00am 12.0 8.1 5.2 63 3.1 WNW 15 22 8 12 - - 0.4
19/07:30am 11.5 8.8 5.4 66 2.8 WNW 9 13 5 7 - - 0.4
19/07:00am 11.4 7.8 5.1 65 2.9 NNW 13 22 7 12 - - 0.4
19/06:30am 11.2 6.5 5.1 66 2.8 N 19 24 10 13 - - 0.4
19/06:00am 11.2 7.5 4.7 64 2.9 NW 13 22 7 12 - - 0.4
19/05:30am 11.2 7.8 4.2 62 3.1 NW 11 20 6 11 - - 0.4
19/05:00am 11.3 7.2 4.3 62 3.1 W 15 33 8 18 - - 0.4
19/04:30am 11.3 6.4 4.1 61 3.2 WNW 19 32 10 17 - - 0.4
19/04:00am 11.4 5.9 3.9 60 3.3 W 22 41 12 22 - - 0.4
19/03:41am 11.5 4.9 4.3 61 3.2 W 28 54 15 29 - - 0.4
19/03:30am 11.5 6.1 4.5 62 3.2 W 22 43 12 23 - - 0.4
19/03:00am 11.2 6.2 4.7 64 2.9 W 20 37 11 20 - - 0.4
19/02:30am 10.8 5.4 4.5 65 2.8 WNW 22 35 12 19 - - 0.4
19/02:00am 10.8 5.4 4.7 66 2.8 WNW 22 41 12 22 - - 0.4
19/01:30am 10.2 5.7 4.4 67 2.6 NW 17 30 9 16 - - 0.4
19/01:00am 10.0 5.1 4.0 66 2.7 WNW 19 26 10 14 - - 0.4
19/12:30am 10.3 4.8 3.8 64 2.9 WNW 22 35 12 19 - - 0.4
19/12:00am 9.7 5.8 3.4 65 2.7 NW 13 22 7 12 - - 0.4
 
Date/Time
EST
Tmp

°C
App
Tmp
°C
Dew
Point
°C
Rel
Hum
%
Delta-T

°C
Wind Press
QNH
hPa
Press
MSL
hPa
Rain
since
9 am
mm
Dir
 
Spd
km/h
Gust
km/h
Spd
kts
Gust
kts
18/11:30pm 9.6 6.4 2.9 63 2.9 NW 9 20 5 11 - - 0.4
18/11:00pm 9.9 4.7 2.5 60 3.2 WNW 19 32 10 17 - - 0.4
18/10:30pm 9.7 5.3 2.6 61 3.0 WNW 15 24 8 13 - - 0.4
18/10:00pm 9.7 4.0 2.8 62 3.0 WNW 22 33 12 18 - - 0.4
18/09:30pm 9.8 4.4 2.6 61 3.1 WNW 20 32 11 17 - - 0.4
18/09:00pm 9.9 5.4 2.3 59 3.2 WNW 15 26 8 14 - - 0.4
18/08:30pm 9.4 5.6 1.8 59 3.2 NW 11 17 6 9 - - 0.4
18/08:00pm 10.0 6.2 1.9 57 3.4 WNW 11 22 6 12 - - 0.4
18/07:30pm 9.7 6.1 2.8 62 3.0 NNW 11 15 6 8 - - 0.4
18/07:00pm 10.5 7.1 2.1 56 3.6 N 9 20 5 11 - - 0.4
18/06:30pm 10.1 6.8 2.7 60 3.2 W 9 24 5 13 - - 0.4
18/06:00pm 10.8 4.3 2.6 57 3.5 WSW 26 46 14 25 - - 0.4
18/05:57pm 10.9 4.0 2.5 56 3.6 W 28 46 15 25 - - 0.4
18/05:30pm 11.1 6.3 2.7 56 3.6 W 17 37 9 20 - - 0.4
18/05:00pm 11.1 6.6 4.3 63 3.1 WSW 17 26 9 14 - - 0.4
18/04:30pm 11.3 6.1 3.8 60 3.3 W 20 39 11 21 - - 0.4
18/04:00pm 11.0 6.0 3.8 61 3.2 W 19 44 10 24 - - 0.4
18/03:30pm 11.5 7.9 4.9 64 3.0 NW 13 37 7 20 - - 0.4
18/03:00pm 10.5 7.2 4.4 66 2.7 ESE 11 22 6 12 - - 0.4
18/02:30pm 9.7 5.3 4.7 71 2.2 W 17 26 9 14 - - 0.4
18/02:00pm 9.8 2.3 4.6 70 2.3 W 33 46 18 25 - - 0.0
18/01:40pm 11.8 3.8 1.7 50 4.3 WSW 33 54 18 29 - - 0.0
18/01:30pm 12.1 5.8 1.7 49 4.4 W 24 39 13 21 - - 0.0
18/01:07pm 11.6 3.8 1.5 50 4.3 W 32 52 17 28 - - 0.0
18/01:00pm 11.7 3.9 1.4 49 4.4 W 32 46 17 25 - - 0.0
18/12:30pm 12.8 6.7 2.6 50 4.5 W 24 39 13 21 - - 0.0
18/12:00pm 12.4 6.3 2.6 51 4.3 W 24 35 13 19 - - 0.0
18/11:30am 12.3 6.5 2.2 50 4.4 WSW 22 35 12 19 - - 0.0
18/11:00am 12.0 7.3 3.3 55 3.9 W 17 26 9 14 - - 0.0
18/10:30am 11.3 7.5 1.5 51 4.1 SW 11 20 6 11 - - 0.0
18/10:00am 10.6 5.5 2.9 59 3.3 W 19 28 10 15 - - 0.0
18/09:30am 9.4 4.3 2.9 64 2.8 W 19 28 10 15 - - 0.0
18/09:00am 8.5 4.5 2.9 68 2.4 W 13 22 7 12 - - 2.4
18/08:30am 8.1 4.8 2.6 68 2.3 W 9 20 5 11 - - 2.4
18/08:00am 7.6 4.3 2.5 70 2.1 N 9 13 5 7 - - 2.4
18/07:30am 7.5 3.4 2.0 68 2.3 NW 13 24 7 13 - - 2.4
18/07:00am 7.4 2.8 1.7 67 2.3 WNW 15 24 8 13 - - 2.4
18/06:30am 7.4 2.8 1.3 65 2.5 W 15 19 8 10 - - 2.4
18/06:00am 6.8 2.5 0.9 66 2.3 W 13 17 7 9 - - 2.4
18/05:30am 6.1 3.2 1.4 72 1.9 NNW 6 11 3 6 - - 2.4
18/05:00am 6.5 3.0 1.4 70 2.0 WNW 9 13 5 7 - - 2.4
18/04:30am 7.5 2.9 1.6 66 2.4 WNW 15 24 8 13 - - 2.4
18/04:00am 7.5 3.4 2.0 68 2.3 WNW 13 19 7 10 - - 2.4
18/03:30am 8.1 3.2 2.1 66 2.5 W 17 28 9 15 - - 2.4
18/03:00am 8.1 3.9 1.7 64 2.6 W 13 33 7 18 - - 2.4
18/02:30am 7.8 3.7 2.1 67 2.4 SW 13 32 7 17 - - 2.4
18/02:00am 7.7 2.9 2.6 70 2.1 W 17 32 9 17 - - 2.4
18/01:30am 7.5 2.1 2.6 71 2.0 W 20 30 11 16 - - 2.4
18/01:00am 7.1 0.6 2.6 73 1.9 WNW 26 39 14 21 - - 2.4
18/12:30am 6.8 1.1 2.7 75 1.7 W 22 32 12 17 - - 2.4
18/12:00am 6.7 -0.2 2.4 74 1.8 W 28 37 15 20 - - 2.4
 
Date/Time
EST
Tmp

°C
App
Tmp
°C
Dew
Point
°C
Rel
Hum
%
Delta-T

°C
Wind Press
QNH
hPa
Press
MSL
hPa
Rain
since
9 am
mm
Dir
 
Spd
km/h
Gust
km/h
Spd
kts
Gust
kts
17/11:30pm 6.9 0.2 1.6 69 2.1 W 26 37 14 20 - - 2.4
17/11:00pm 6.9 -0.6 1.2 67 2.3 W 30 46 16 25 - - 2.4
17/10:55pm 7.0 -0.1 1.3 67 2.3 W 28 46 15 25 - - 2.4
17/10:30pm 6.6 0.2 0.9 67 2.3 W 24 33 13 18 - - 2.4
17/10:00pm 6.3 0.8 0.6 67 2.2 WNW 19 28 10 15 - - 2.4

Latest Capital City Observations: Canberra | Sydney | Melbourne | Brisbane | Adelaide | Perth | Hobart | Darwin

Other Formats:

Comma delimited format used in spreadsheet applications
http://www.bom.gov.au/fwo/IDT60901/IDT60901.95972.axf

JavaScript Object Notation format (JSON) in row-major order
http://www.bom.gov.au/fwo/IDT60901/IDT60901.95972.json